createdAt,value
2023-07-02T00:00:13.523Z,17.45
2023-07-02T00:02:41.776Z,17.52
2023-07-02T00:05:10.364Z,19.00
2023-07-02T00:07:38.774Z,19.45
2023-07-02T00:10:08.013Z,18.15
2023-07-02T00:12:37.657Z,20.67
2023-07-02T00:15:07.141Z,19.88
2023-07-02T00:17:35.519Z,18.27
2023-07-02T00:20:10.167Z,17.50
2023-07-02T00:22:38.379Z,17.75
2023-07-02T00:25:06.829Z,18.70
2023-07-02T00:27:35.171Z,20.38
2023-07-02T00:30:05.253Z,16.70
2023-07-02T00:32:33.519Z,18.00
2023-07-02T00:35:02.223Z,20.77
2023-07-02T00:37:30.443Z,17.85
2023-07-02T00:39:59.208Z,19.33
2023-07-02T00:42:30.682Z,18.50
2023-07-02T00:45:03.800Z,19.25
2023-07-02T00:47:36.636Z,19.10
2023-07-02T00:50:05.423Z,17.42
2023-07-02T00:52:33.592Z,18.95
2023-07-02T00:55:01.927Z,22.88
2023-07-02T00:57:31.072Z,22.13
2023-07-02T01:00:01.799Z,18.38
2023-07-02T01:02:30.949Z,20.05
2023-07-02T01:05:02.185Z,19.13
2023-07-02T01:07:31.041Z,21.48
2023-07-02T01:09:59.403Z,18.20
2023-07-02T01:12:29.055Z,18.17
2023-07-02T01:15:01.867Z,20.05
2023-07-02T01:17:42.621Z,17.85
2023-07-02T01:20:14.264Z,17.85
2023-07-02T01:22:43.282Z,18.77
2023-07-02T01:25:11.562Z,19.23
2023-07-02T01:27:40.315Z,19.77
2023-07-02T01:30:11.185Z,19.02
2023-07-02T01:32:40.808Z,18.92
2023-07-02T01:35:10.233Z,18.30
2023-07-02T01:37:40.622Z,18.77
2023-07-02T01:40:10.268Z,18.70
2023-07-02T01:42:39.574Z,20.17
2023-07-02T01:45:08.807Z,18.38
2023-07-02T01:47:37.170Z,18.95
2023-07-02T01:50:07.432Z,20.75
2023-07-02T01:52:36.562Z,22.33
2023-07-02T01:55:06.928Z,19.95
2023-07-02T01:57:35.237Z,18.40
2023-07-02T02:00:03.747Z,16.75
2023-07-02T02:02:44.413Z,19.20
2023-07-02T02:05:12.751Z,19.73
2023-07-02T02:07:41.000Z,19.15
2023-07-02T02:10:11.739Z,20.02
2023-07-02T02:12:39.835Z,21.92
2023-07-02T02:15:09.471Z,21.60
2023-07-02T02:17:37.748Z,19.25
2023-07-02T02:20:09.523Z,20.70
2023-07-02T02:22:38.349Z,17.45
2023-07-02T02:25:07.180Z,18.95
2023-07-02T02:27:37.009Z,19.42
2023-07-02T02:30:06.210Z,19.63
2023-07-02T02:32:36.590Z,20.27
2023-07-02T02:35:05.165Z,19.67
2023-07-02T02:37:36.102Z,20.60
2023-07-02T02:40:06.879Z,18.85
2023-07-02T02:42:36.919Z,18.73
2023-07-02T02:45:06.936Z,17.75
2023-07-02T02:47:36.505Z,18.83
2023-07-02T02:50:05.287Z,21.10
2023-07-02T02:52:33.427Z,21.45
2023-07-02T02:55:01.831Z,17.38
2023-07-02T02:57:30.277Z,19.38
2023-07-02T02:59:59.955Z,16.27
2023-07-02T03:02:28.330Z,21.52
2023-07-02T03:04:58.256Z,18.63
2023-07-02T03:07:26.472Z,19.60
2023-07-02T03:09:54.680Z,19.20
2023-07-02T03:12:26.759Z,17.70
2023-07-02T03:14:56.672Z,20.58
2023-07-02T03:17:27.112Z,17.75
2023-07-02T03:19:55.340Z,17.75
2023-07-02T03:22:23.412Z,17.75
2023-07-02T03:24:51.706Z,19.85
2023-07-02T03:27:19.902Z,17.27
2023-07-02T03:29:48.037Z,18.08
2023-07-02T03:32:16.147Z,17.63
2023-07-02T03:34:45.755Z,19.27
2023-07-02T03:37:13.924Z,19.95
2023-07-02T03:39:42.225Z,17.73
2023-07-02T03:42:10.492Z,19.67
2023-07-02T03:44:38.810Z,15.73
2023-07-02T03:47:09.553Z,16.88
2023-07-02T03:49:37.823Z,19.00
2023-07-02T03:52:08.638Z,17.33
2023-07-02T03:54:37.108Z,16.30
2023-07-02T03:57:05.875Z,15.70
2023-07-02T03:59:34.026Z,16.83
2023-07-02T04:02:02.237Z,15.50
2023-07-02T04:04:30.848Z,16.23
2023-07-02T04:06:59.041Z,17.23
2023-07-02T04:09:28.696Z,17.40
2023-07-02T04:11:56.936Z,15.95
2023-07-02T04:14:25.329Z,15.35
2023-07-02T04:16:53.619Z,15.70
2023-07-02T04:19:21.815Z,14.88
2023-07-02T04:21:50.296Z,15.63
2023-07-02T04:24:18.765Z,16.00
2023-07-02T04:27:11.186Z,17.33
2023-07-02T04:29:36.921Z,16.75
2023-07-02T04:32:05.335Z,17.20
2023-07-02T04:34:33.618Z,14.55
2023-07-02T04:37:01.835Z,15.52
2023-07-02T04:39:29.986Z,18.00
2023-07-02T04:41:59.823Z,14.25
2023-07-02T04:44:30.485Z,14.98
2023-07-02T04:46:59.700Z,14.90
2023-07-02T04:49:28.000Z,17.25
2023-07-02T04:51:56.849Z,14.25
2023-07-02T04:54:25.102Z,16.92
2023-07-02T04:56:53.469Z,16.52
2023-07-02T04:59:24.064Z,21.20
2023-07-02T05:01:52.289Z,17.17
2023-07-02T05:04:21.075Z,17.27
2023-07-02T05:06:49.579Z,18.02
2023-07-02T05:09:17.751Z,14.93
2023-07-02T05:11:46.027Z,15.15
2023-07-02T05:14:14.209Z,14.70
2023-07-02T05:16:43.886Z,14.93
2023-07-02T05:19:11.937Z,12.82
2023-07-02T05:21:40.272Z,13.77
2023-07-02T05:24:10.746Z,15.45
2023-07-02T05:26:39.089Z,17.17
2023-07-02T05:29:07.376Z,13.52
2023-07-02T05:31:36.208Z,12.88
2023-07-02T05:34:05.748Z,17.17
2023-07-02T05:36:35.716Z,13.23
2023-07-02T05:39:03.997Z,12.60
2023-07-02T05:41:32.220Z,17.98
2023-07-02T05:44:00.619Z,17.27
2023-07-02T05:46:29.227Z,11.80
2023-07-02T05:48:58.297Z,15.18
2023-07-02T05:51:28.166Z,12.85
2023-07-02T05:53:56.340Z,14.27
2023-07-02T05:56:24.593Z,11.63
2023-07-02T05:58:52.800Z,14.52
2023-07-02T06:01:21.032Z,11.70
2023-07-02T06:03:51.777Z,14.98
2023-07-02T06:06:20.407Z,20.15
2023-07-02T06:08:49.952Z,18.17
2023-07-02T06:11:18.266Z,17.02
2023-07-02T06:13:46.521Z,19.70
2023-07-02T06:16:14.726Z,19.35
2023-07-02T06:18:43.192Z,22.00
2023-07-02T06:21:11.477Z,32.78
2023-07-02T06:23:43.790Z,27.17
2023-07-02T06:26:13.894Z,24.85
2023-07-02T06:28:42.087Z,25.00
2023-07-02T06:31:10.242Z,17.95
2023-07-02T06:33:41.723Z,17.83
2023-07-02T06:36:11.873Z,16.48
2023-07-02T06:38:41.316Z,12.70
2023-07-02T06:41:09.653Z,18.38
2023-07-02T06:43:39.268Z,11.48
2023-07-02T06:46:07.540Z,11.43
2023-07-02T06:48:35.693Z,12.43
2023-07-02T06:51:03.843Z,15.95
2023-07-02T06:53:31.992Z,9.75
2023-07-02T06:56:00.328Z,11.38
2023-07-02T06:58:28.598Z,10.23
2023-07-02T07:00:58.075Z,12.45
2023-07-02T07:03:26.442Z,11.52
2023-07-02T07:05:54.967Z,13.23
2023-07-02T07:08:23.128Z,10.82
2023-07-02T07:10:52.984Z,8.07
2023-07-02T07:13:21.233Z,12.55
2023-07-02T07:15:49.512Z,10.82
2023-07-02T07:18:20.018Z,9.93
2023-07-02T07:20:49.057Z,9.60
2023-07-02T07:23:17.897Z,8.40
2023-07-02T07:25:46.169Z,8.95
2023-07-02T07:28:16.948Z,7.88
2023-07-02T07:30:45.707Z,7.72
2023-07-02T07:33:13.913Z,7.10
2023-07-02T07:35:43.430Z,10.43
2023-07-02T07:38:11.632Z,9.25
2023-07-02T07:40:39.942Z,8.95
2023-07-02T07:43:08.081Z,7.95
2023-07-02T07:45:36.685Z,7.75
2023-07-02T07:48:05.389Z,9.88
2023-07-02T07:50:33.775Z,8.68
2023-07-02T07:53:03.366Z,7.88
2023-07-02T07:55:31.695Z,6.95
2023-07-02T07:57:59.906Z,6.82
2023-07-02T08:00:28.282Z,8.25
2023-07-02T08:02:57.738Z,7.90
2023-07-02T08:05:26.214Z,6.40
2023-07-02T08:07:54.749Z,5.47
2023-07-02T08:10:25.036Z,7.13
2023-07-02T08:12:54.372Z,5.95
2023-07-02T08:15:22.707Z,4.45
2023-07-02T08:17:52.844Z,5.28
2023-07-02T08:20:21.038Z,5.57
2023-07-02T08:22:49.246Z,5.57
2023-07-02T08:25:18.556Z,5.90
2023-07-02T08:27:48.171Z,9.52
2023-07-02T08:30:16.472Z,5.53
2023-07-02T08:32:44.883Z,4.18
2023-07-02T08:35:13.108Z,4.75
2023-07-02T08:37:43.201Z,6.47
2023-07-02T08:40:19.139Z,4.30
2023-07-02T08:42:49.316Z,3.85
2023-07-02T08:45:18.282Z,5.38
2023-07-02T08:47:47.422Z,3.22
2023-07-02T08:50:16.194Z,6.32
2023-07-02T08:52:46.406Z,3.60
2023-07-02T08:55:15.067Z,5.80
2023-07-02T08:57:50.446Z,5.53
2023-07-02T09:00:20.953Z,4.03
2023-07-02T09:02:49.302Z,4.13
2023-07-02T09:05:17.476Z,4.63
2023-07-02T09:07:47.154Z,5.45
2023-07-02T09:10:27.577Z,4.55
2023-07-02T09:13:06.373Z,3.05
2023-07-02T09:15:40.597Z,5.53
2023-07-02T09:18:19.631Z,4.95
2023-07-02T09:20:48.628Z,5.95
2023-07-02T09:23:17.128Z,3.22
2023-07-02T09:25:45.934Z,3.15
2023-07-02T09:28:18.956Z,2.60
2023-07-02T09:30:56.805Z,6.13
2023-07-02T09:33:26.784Z,5.88
2023-07-02T09:35:55.241Z,9.80
2023-07-02T09:38:24.324Z,6.43
2023-07-02T09:40:54.008Z,3.22
2023-07-02T09:43:23.372Z,5.47
2023-07-02T09:45:55.006Z,4.93
2023-07-02T09:48:27.710Z,3.58
2023-07-02T09:50:57.418Z,7.65
2023-07-02T09:53:25.642Z,4.35
2023-07-02T09:55:54.398Z,4.50
2023-07-02T09:58:22.808Z,10.80
2023-07-02T10:00:51.626Z,5.07
2023-07-02T10:03:31.677Z,5.30
2023-07-02T10:06:07.324Z,3.67
2023-07-02T10:08:35.959Z,5.85
2023-07-02T10:11:15.228Z,5.72
2023-07-02T10:13:43.815Z,6.18
2023-07-02T10:16:12.036Z,4.90
2023-07-02T10:18:41.637Z,5.40
2023-07-02T10:21:17.716Z,6.47
2023-07-02T10:23:46.182Z,3.35
2023-07-02T10:26:18.612Z,5.15
2023-07-02T10:28:58.529Z,4.38
2023-07-02T10:31:27.046Z,4.07
2023-07-02T10:33:56.637Z,6.55
2023-07-02T10:36:26.282Z,4.43
2023-07-02T10:38:54.654Z,2.78
2023-07-02T10:41:27.461Z,3.50
2023-07-02T10:43:56.293Z,4.95
2023-07-02T10:46:24.807Z,3.10
2023-07-02T10:48:58.279Z,2.58
2023-07-02T10:51:29.659Z,2.95
2023-07-02T10:54:01.699Z,3.60
2023-07-02T10:56:30.388Z,2.50
2023-07-02T10:58:59.071Z,2.83
2023-07-02T11:01:29.279Z,2.78
2023-07-02T11:04:03.199Z,2.92
2023-07-02T11:06:34.578Z,4.60
2023-07-02T11:09:03.663Z,3.30
2023-07-02T11:11:31.769Z,3.88
2023-07-02T11:14:00.128Z,3.42
2023-07-02T11:16:30.716Z,2.33
2023-07-02T11:19:11.391Z,3.72
2023-07-02T11:21:40.019Z,2.92
2023-07-02T11:24:10.332Z,4.15
2023-07-02T11:26:39.498Z,2.63
2023-07-02T11:29:13.612Z,4.65
2023-07-02T11:31:41.979Z,4.07
2023-07-02T11:34:19.390Z,8.55
2023-07-02T11:36:48.318Z,2.45
2023-07-02T11:39:17.228Z,4.57
2023-07-02T11:41:47.077Z,2.25
2023-07-02T11:44:15.284Z,2.25
2023-07-02T11:46:43.555Z,4.55
2023-07-02T11:49:11.836Z,4.75
2023-07-02T11:51:42.775Z,3.40
2023-07-02T11:54:11.059Z,2.30
2023-07-02T11:56:39.663Z,3.42
2023-07-02T11:59:07.872Z,3.83
2023-07-02T12:01:36.023Z,5.40
2023-07-02T12:04:04.331Z,4.65
2023-07-02T12:06:32.500Z,5.03
2023-07-02T12:09:02.030Z,8.70
2023-07-02T12:11:30.139Z,3.10
2023-07-02T12:13:58.671Z,4.05
2023-07-02T12:16:28.769Z,3.30
2023-07-02T12:18:56.955Z,5.07
2023-07-02T12:21:25.173Z,2.58
2023-07-02T12:23:53.495Z,3.05
2023-07-02T12:26:22.945Z,5.18
2023-07-02T12:28:51.409Z,9.57
2023-07-02T12:31:19.648Z,4.38
2023-07-02T12:33:47.980Z,2.22
2023-07-02T12:36:16.182Z,3.65
2023-07-02T12:38:44.360Z,8.05
2023-07-02T12:41:14.188Z,13.75
2023-07-02T12:43:43.953Z,7.45
2023-07-02T12:46:12.066Z,7.10
2023-07-02T12:48:40.256Z,5.65
2023-07-02T12:51:08.480Z,2.63
2023-07-02T12:53:36.811Z,2.88
2023-07-02T12:56:05.472Z,3.53
2023-07-02T12:58:33.777Z,2.53
2023-07-02T13:01:03.393Z,3.33
2023-07-02T13:03:32.984Z,4.63
2023-07-02T13:06:01.217Z,2.40
2023-07-02T13:08:29.383Z,3.20
2023-07-02T13:10:57.577Z,3.40
2023-07-02T13:13:28.323Z,2.55
2023-07-02T13:15:58.936Z,2.13
2023-07-02T13:18:28.591Z,2.72
2023-07-02T13:20:56.876Z,3.25
2023-07-02T13:23:25.082Z,2.20
2023-07-02T13:25:53.316Z,2.90
2023-07-02T13:28:22.481Z,5.45
2023-07-02T13:30:50.965Z,2.03
2023-07-02T13:33:19.640Z,5.43
2023-07-02T13:35:49.466Z,3.78
2023-07-02T13:38:17.949Z,6.10
2023-07-02T13:40:46.257Z,2.40
2023-07-02T13:43:14.530Z,4.78
2023-07-02T13:45:42.802Z,2.40
2023-07-02T13:48:11.145Z,3.83
2023-07-02T13:50:39.492Z,2.28
2023-07-02T13:53:10.026Z,7.03
2023-07-02T13:55:38.345Z,5.55
2023-07-02T13:58:06.527Z,1.98
2023-07-02T14:00:36.085Z,1.80
2023-07-02T14:03:05.590Z,2.70
2023-07-02T14:05:34.430Z,3.35
2023-07-02T14:08:02.664Z,2.50
2023-07-02T14:10:30.957Z,5.18
2023-07-02T14:12:59.076Z,6.50
2023-07-02T14:15:28.825Z,6.45
2023-07-02T14:18:01.099Z,2.35
2023-07-02T14:20:29.434Z,1.35
2023-07-02T14:22:57.550Z,3.00
2023-07-02T14:25:40.566Z,1.92
2023-07-02T14:28:10.198Z,5.28
2023-07-02T14:30:39.035Z,1.55
2023-07-02T14:33:08.604Z,4.22
2023-07-02T14:35:37.084Z,2.30
2023-07-02T14:38:05.461Z,2.17
2023-07-02T14:40:34.228Z,5.40
2023-07-02T14:43:05.211Z,5.85
2023-07-02T14:45:33.543Z,5.57
2023-07-02T14:48:01.969Z,3.83
2023-07-02T14:50:32.507Z,2.95
2023-07-02T14:53:00.747Z,5.78
2023-07-02T14:55:29.220Z,2.45
2023-07-02T14:57:57.333Z,3.67
2023-07-02T15:00:25.550Z,2.50
2023-07-02T15:02:53.929Z,2.78
2023-07-02T15:05:22.376Z,2.90
2023-07-02T15:07:52.759Z,1.80
2023-07-02T15:10:21.128Z,3.88
2023-07-02T15:12:49.206Z,2.45
2023-07-02T15:15:17.909Z,2.40
2023-07-02T15:17:46.121Z,5.60
2023-07-02T15:20:14.583Z,8.73
2023-07-02T15:22:42.802Z,6.63
2023-07-02T15:25:12.507Z,4.00
2023-07-02T15:27:40.770Z,3.70
2023-07-02T15:30:09.997Z,3.00
2023-07-02T15:32:38.215Z,2.25
2023-07-02T15:35:07.171Z,4.20
2023-07-02T15:37:35.421Z,4.50
2023-07-02T15:40:03.753Z,6.07
2023-07-02T15:42:33.942Z,2.47
2023-07-02T15:45:03.662Z,3.28
2023-07-02T15:47:33.737Z,4.82
2023-07-02T15:50:02.234Z,2.85
2023-07-02T15:52:30.424Z,6.43
2023-07-02T15:54:58.631Z,52.30
2023-07-02T15:57:26.766Z,54.65
2023-07-02T15:59:56.790Z,44.45
2023-07-02T16:02:25.016Z,40.90
2023-07-02T16:04:53.692Z,21.30
2023-07-02T16:07:22.035Z,18.88
2023-07-02T16:09:50.209Z,12.98
2023-07-02T16:12:18.427Z,11.10
2023-07-02T16:14:46.804Z,8.65
2023-07-02T16:17:16.359Z,10.98
2023-07-02T16:19:44.636Z,13.85
2023-07-02T16:22:13.432Z,13.98
2023-07-02T16:24:42.849Z,13.25
2023-07-02T16:27:13.475Z,11.70
2023-07-02T16:29:42.266Z,9.75
2023-07-02T16:32:14.917Z,6.82
2023-07-02T16:34:46.354Z,3.65
2023-07-02T16:37:14.512Z,4.63
2023-07-02T16:39:42.706Z,7.85
2023-07-02T16:42:12.924Z,2.80
2023-07-02T16:44:41.493Z,3.88
2023-07-02T16:47:10.005Z,2.33
2023-07-02T16:49:38.359Z,5.43
2023-07-02T16:52:08.963Z,3.47
2023-07-02T16:54:37.257Z,4.18
2023-07-02T16:57:06.673Z,3.00
2023-07-02T16:59:38.575Z,3.28
2023-07-02T17:02:09.305Z,9.43
2023-07-02T17:04:37.636Z,2.58
2023-07-02T17:07:07.711Z,4.60
2023-07-02T17:09:40.549Z,3.45
2023-07-02T17:12:12.917Z,3.83
2023-07-02T17:14:42.238Z,2.88
2023-07-02T17:17:13.576Z,3.65
2023-07-02T17:19:44.078Z,5.38
2023-07-02T17:22:15.452Z,3.95
2023-07-02T17:24:45.675Z,7.25
2023-07-02T17:27:16.340Z,3.13
2023-07-02T17:29:50.706Z,2.47
2023-07-02T17:32:19.015Z,2.72
2023-07-02T17:34:47.182Z,2.50
2023-07-02T17:37:18.271Z,2.57
2023-07-02T17:39:47.097Z,3.88
2023-07-02T17:42:16.643Z,3.40
2023-07-02T17:44:46.528Z,4.07
2023-07-02T17:47:17.075Z,9.68
2023-07-02T17:49:47.037Z,3.88
2023-07-02T17:52:18.756Z,3.40
2023-07-02T17:54:48.865Z,4.72
2023-07-02T17:57:18.317Z,5.43
2023-07-02T17:59:47.460Z,2.45
2023-07-02T18:02:17.734Z,2.83
2023-07-02T18:04:46.913Z,3.58
2023-07-02T18:07:19.533Z,6.10
2023-07-02T18:09:50.590Z,2.38
2023-07-02T18:12:20.912Z,4.57
2023-07-02T18:14:49.129Z,4.00
2023-07-02T18:17:17.774Z,2.97
2023-07-02T18:19:46.124Z,2.20
2023-07-02T18:22:14.328Z,2.30
2023-07-02T18:24:44.157Z,2.40
2023-07-02T18:27:14.388Z,3.58
2023-07-02T18:29:42.594Z,3.95
2023-07-02T18:32:11.018Z,8.93
2023-07-02T18:34:42.231Z,3.55
2023-07-02T18:37:11.033Z,3.08
2023-07-02T18:39:39.683Z,3.70
2023-07-02T18:42:12.160Z,3.67
2023-07-02T18:44:41.273Z,4.57
2023-07-02T18:47:12.642Z,4.78
2023-07-02T18:49:41.942Z,5.47
2023-07-02T18:52:12.999Z,2.75
2023-07-02T18:54:41.585Z,9.32
2023-07-02T18:57:12.912Z,3.60
2023-07-02T18:59:46.708Z,3.53
2023-07-02T19:02:14.955Z,5.38
2023-07-02T19:04:43.214Z,3.08
2023-07-02T19:07:11.504Z,9.02
2023-07-02T19:09:40.490Z,5.85
2023-07-02T19:12:10.778Z,3.53
2023-07-02T19:14:40.060Z,3.17
2023-07-02T19:17:09.932Z,5.82
2023-07-02T19:19:39.817Z,7.85
2023-07-02T19:22:08.584Z,4.78
2023-07-02T19:24:37.038Z,4.78
2023-07-02T19:27:08.724Z,3.70
2023-07-02T19:29:38.828Z,4.10
2023-07-02T19:32:07.640Z,4.68
2023-07-02T19:34:36.264Z,5.70
2023-07-02T19:37:06.307Z,5.93
2023-07-02T19:39:35.111Z,5.13
2023-07-02T19:42:03.382Z,5.82
2023-07-02T19:44:31.648Z,2.28
2023-07-02T19:47:01.250Z,4.72
2023-07-02T19:49:31.203Z,6.15
2023-07-02T19:51:59.401Z,3.40
2023-07-02T19:54:27.714Z,4.40
2023-07-02T19:56:57.796Z,4.13
2023-07-02T19:59:27.067Z,9.65
2023-07-02T20:01:55.278Z,4.28
2023-07-02T20:04:24.920Z,4.13
2023-07-02T20:06:53.527Z,4.97
2023-07-02T20:09:21.983Z,4.78
2023-07-02T20:11:50.137Z,4.55
2023-07-02T20:14:18.451Z,6.45
2023-07-02T20:16:51.926Z,3.08
2023-07-02T20:19:21.276Z,4.03
2023-07-02T20:21:55.969Z,14.13
2023-07-02T20:24:24.711Z,8.82
2023-07-02T20:26:53.366Z,5.50
2023-07-02T20:29:21.650Z,4.57
2023-07-02T20:31:50.764Z,8.20
2023-07-02T20:34:19.230Z,5.57
2023-07-02T20:36:47.654Z,4.82
2023-07-02T20:39:17.149Z,6.80
2023-07-02T20:41:47.284Z,3.17
2023-07-02T20:44:16.706Z,5.68
2023-07-02T20:46:47.461Z,5.28
2023-07-02T20:49:16.704Z,4.38
2023-07-02T20:51:45.150Z,4.72
2023-07-02T20:54:14.360Z,4.50
2023-07-02T20:56:44.225Z,6.68
2023-07-02T20:59:12.421Z,6.93
2023-07-02T21:01:40.712Z,6.53
2023-07-02T21:04:09.073Z,6.00
2023-07-02T21:06:38.469Z,6.40
2023-07-02T21:09:08.322Z,6.03
2023-07-02T21:11:36.822Z,6.95
2023-07-02T21:14:08.437Z,11.55
2023-07-02T21:16:37.543Z,4.75
2023-07-02T21:19:05.777Z,6.68
2023-07-02T21:21:35.438Z,6.82
2023-07-02T21:24:04.053Z,4.90
2023-07-02T21:26:32.595Z,4.05
2023-07-02T21:29:00.806Z,5.88
2023-07-02T21:31:30.500Z,5.50
2023-07-02T21:33:58.678Z,5.90
2023-07-02T21:36:26.973Z,7.93
2023-07-02T21:38:55.431Z,6.47
2023-07-02T21:41:23.640Z,5.07
2023-07-02T21:43:51.774Z,7.05
2023-07-02T21:46:20.277Z,7.10
2023-07-02T21:48:49.749Z,10.77
2023-07-02T21:51:19.065Z,6.97
2023-07-02T21:53:47.257Z,7.95
2023-07-02T21:56:15.528Z,6.60
2023-07-02T21:58:44.424Z,5.25
2023-07-02T22:01:12.943Z,7.22
2023-07-02T22:03:41.062Z,5.80
2023-07-02T22:06:10.945Z,5.18
2023-07-02T22:08:39.285Z,6.47
2023-07-02T22:11:22.942Z,4.10
2023-07-02T22:13:52.392Z,5.78
2023-07-02T22:16:21.055Z,6.03
2023-07-02T22:18:49.406Z,8.27
2023-07-02T22:21:19.168Z,4.20
2023-07-02T22:23:49.282Z,6.63
2023-07-02T22:26:17.841Z,8.55
2023-07-02T22:28:46.127Z,4.70
2023-07-02T22:31:14.329Z,6.10
2023-07-02T22:33:42.578Z,6.05
2023-07-02T22:36:10.814Z,6.32
2023-07-02T22:38:40.540Z,8.70
2023-07-02T22:41:08.695Z,8.57
2023-07-02T22:43:36.873Z,6.22
2023-07-02T22:46:05.095Z,4.85
2023-07-02T22:48:33.349Z,5.63
2023-07-02T22:51:01.585Z,8.35
2023-07-02T22:53:29.880Z,5.85
2023-07-02T22:55:59.401Z,8.77
2023-07-02T22:58:27.636Z,7.10
2023-07-02T23:00:55.788Z,5.55
2023-07-02T23:03:24.271Z,6.75
2023-07-02T23:05:52.811Z,6.25
2023-07-02T23:08:21.428Z,5.07
2023-07-02T23:10:49.677Z,8.98
2023-07-02T23:13:19.940Z,8.65
2023-07-02T23:15:48.469Z,6.10
2023-07-02T23:18:16.930Z,4.95
2023-07-02T23:20:46.612Z,9.00
2023-07-02T23:23:18.578Z,5.50
2023-07-02T23:25:49.953Z,7.75
2023-07-02T23:28:19.807Z,7.60
2023-07-02T23:30:48.804Z,5.95
2023-07-02T23:33:17.119Z,6.07
2023-07-02T23:35:45.355Z,11.43
2023-07-02T23:38:13.629Z,5.85
2023-07-02T23:40:41.937Z,6.10
2023-07-02T23:43:10.241Z,7.57
2023-07-02T23:45:39.785Z,5.68
2023-07-02T23:48:08.450Z,7.47
2023-07-02T23:50:37.591Z,7.60
2023-07-02T23:53:05.871Z,8.00
2023-07-02T23:55:34.024Z,7.00
2023-07-02T23:58:02.315Z,6.15
